Time;durP1;ratioP1;P1;durP2;ratioP2;P2;SDS_P1;SDS_P2;PMS_P1;PMS_P2;Temp;Humidity;BMP_temperature;BMP_pressure;BME280_temperature;BME280_humidity;BME280_pressure;Samples;Min_cycle;Max_cycle;Signal;HPM_P1;HPM_P2
2022/09/23 00:00:02;;;;;;;6.55;4.85;;;;;;;;;;6257495;23;20321;-84
2022/09/23 00:02:51;;;;;;;10.93;6.55;;;;;;;;;;6257269;23;20019;-84
2022/09/23 00:05:37;;;;;;;13.45;7.07;;;;;;;;;;6257298;23;20012;-81
2022/09/23 00:08:21;;;;;;;16.17;9.38;;;;;;;;;;6257004;23;20425;-83
2022/09/23 00:11:16;;;;;;;16.55;8.70;;;;;;;;;;6256747;23;20012;-82
2022/09/23 00:14:01;;;;;;;10.73;6.68;;;;;;;;;;6257520;23;20012;-83
2022/09/23 00:16:46;;;;;;;12.57;6.22;;;;;;;;;;6257358;23;20012;-82
2022/09/23 00:19:32;;;;;;;8.63;5.43;;;;;;;;;;6257166;23;20012;-82
2022/09/23 00:22:17;;;;;;;10.43;5.50;;;;;;;;;;6257312;23;20433;-83
2022/09/23 00:25:05;;;;;;;6.63;5.00;;;;;;;;;;6256874;23;20009;-83
2022/09/23 00:27:50;;;;;;;13.57;7.63;;;;;;;;;;6257690;23;20016;-85
2022/09/23 00:30:39;;;;;;;16.90;10.85;;;;;;;;;;6256778;23;20425;-83
2022/09/23 00:33:25;;;;;;;13.70;7.85;;;;;;;;;;6257034;23;20317;-82
2022/09/23 00:36:16;;;;;;;16.98;10.20;;;;;;;;;;6257277;23;20015;-82
2022/09/23 00:39:02;;;;;;;11.38;7.85;;;;;;;;;;6256781;23;20016;-82
2022/09/23 00:41:48;;;;;;;13.80;7.90;;;;;;;;;;6257227;23;20016;-82
2022/09/23 00:44:48;;;;;;;15.00;7.82;;;;;;;;;;6257075;23;20016;-83
2022/09/23 00:47:56;;;;;;;11.60;7.07;;;;;;;;;;6256170;23;20016;-82
2022/09/23 00:50:53;;;;;;;10.82;7.05;;;;;;;;;;6256708;23;20008;-83
2022/09/23 00:53:40;;;;;;;10.80;7.63;;;;;;;;;;6257867;23;20012;-84
2022/09/23 00:56:25;;;;;;;11.20;7.10;;;;;;;;;;6259372;23;20016;-84
2022/09/23 00:59:12;;;;;;;9.50;6.78;;;;;;;;;;6258243;23;20008;-83
2022/09/23 01:01:59;;;;;;;9.68;6.53;;;;;;;;;;6259513;23;20385;-84
2022/09/23 01:04:48;;;;;;;6.70;5.38;;;;;;;;;;6259040;23;20008;-82
2022/09/23 01:07:34;;;;;;;6.93;5.32;;;;;;;;;;6258379;23;20317;-84
2022/09/23 01:10:20;;;;;;;7.53;5.38;;;;;;;;;;6258903;23;20412;-85
2022/09/23 01:13:15;;;;;;;13.18;6.97;;;;;;;;;;6258061;23;20011;-84
2022/09/23 01:16:24;;;;;;;11.75;6.93;;;;;;;;;;6259300;23;20433;-84
2022/09/23 01:19:15;;;;;;;9.20;6.30;;;;;;;;;;6258388;23;20016;-83
2022/09/23 01:22:16;;;;;;;9.38;5.82;;;;;;;;;;6258721;23;20016;-82
2022/09/23 01:25:23;;;;;;;13.15;6.07;;;;;;;;;;6258405;23;20016;-81
2022/09/23 01:28:32;;;;;;;9.10;5.57;;;;;;;;;;6258203;23;20016;-82
2022/09/23 01:31:42;;;;;;;11.70;6.22;;;;;;;;;;6258547;23;20012;-84
2022/09/23 01:34:41;;;;;;;18.80;6.45;;;;;;;;;;6258027;23;20012;-83
2022/09/23 01:37:37;;;;;;;11.57;6.65;;;;;;;;;;6259015;23;20440;-84
2022/09/23 01:40:29;;;;;;;12.48;6.63;;;;;;;;;;6258741;23;20016;-82
2022/09/23 01:43:26;;;;;;;13.70;6.47;;;;;;;;;;6259187;23;20012;-86
2022/09/23 01:46:21;;;;;;;10.75;6.55;;;;;;;;;;6259054;23;20016;-84
2022/09/23 01:49:25;;;;;;;11.80;7.32;;;;;;;;;;6257931;23;20324;-83
2022/09/23 01:52:23;;;;;;;10.45;7.18;;;;;;;;;;6258858;23;20012;-85
2022/09/23 01:55:14;;;;;;;8.50;5.57;;;;;;;;;;6258113;23;20016;-83
2022/09/23 01:58:07;;;;;;;6.72;4.22;;;;;;;;;;6258600;23;20020;-83
2022/09/23 02:01:02;;;;;;;6.22;4.38;;;;;;;;;;6258573;23;20016;-83
2022/09/23 02:04:03;;;;;;;9.48;4.32;;;;;;;;;;6258163;23;20328;-82
2022/09/23 02:06:58;;;;;;;7.72;5.05;;;;;;;;;;6257948;23;20012;-82
2022/09/23 02:09:48;;;;;;;6.70;5.20;;;;;;;;;;6258213;23;20016;-81
2022/09/23 02:12:37;;;;;;;9.90;6.43;;;;;;;;;;6259108;23;20309;-82
2022/09/23 02:15:30;;;;;;;9.80;6.65;;;;;;;;;;6258929;23;20428;-84
2022/09/23 02:18:29;;;;;;;13.07;6.93;;;;;;;;;;6258499;23;20012;-82
2022/09/23 02:21:19;;;;;;;11.75;7.22;;;;;;;;;;6258417;23;20020;-81
2022/09/23 02:24:19;;;;;;;15.63;6.80;;;;;;;;;;6257391;23;20016;-83
2022/09/23 02:27:07;;;;;;;8.77;5.25;;;;;;;;;;6227807;23;20012;-83
2022/09/23 02:30:19;;;;;;;9.00;5.80;;;;;;;;;;6227147;23;20016;-85
2022/09/23 02:33:10;;;;;;;9.02;5.80;;;;;;;;;;6227652;23;20017;-82
2022/09/23 02:36:07;;;;;;;45.22;27.42;;;;;;;;;;6228278;23;20313;-82
2022/09/23 02:38:56;;;;;;;33.42;20.45;;;;;;;;;;6227045;23;20012;-85
2022/09/23 02:41:57;;;;;;;21.00;11.07;;;;;;;;;;6228355;23;20016;-83
2022/09/23 02:44:43;;;;;;;20.98;9.52;;;;;;;;;;6227503;23;20016;-84
2022/09/23 02:47:33;;;;;;;21.13;8.68;;;;;;;;;;6228425;23;20016;-84
2022/09/23 02:50:18;;;;;;;17.83;9.25;;;;;;;;;;6205091;23;20016;-82
2022/09/23 02:53:06;;;;;;;20.58;9.38;;;;;;;;;;6227799;23;20012;-83
2022/09/23 02:55:51;;;;;;;17.20;8.77;;;;;;;;;;6227895;23;20017;-86
2022/09/23 02:58:37;;;;;;;15.02;7.60;;;;;;;;;;6228106;23;20012;-84
2022/09/23 03:01:47;;;;;;;9.63;6.03;;;;;;;;;;6228526;23;20016;-85
2022/09/23 03:04:46;;;;;;;10.63;5.53;;;;;;;;;;6228092;23;20429;-84
2022/09/23 03:07:43;;;;;;;28.70;11.93;;;;;;;;;;6228049;23;20016;-82
2022/09/23 03:10:47;;;;;;;44.53;17.05;;;;;;;;;;6228505;23;20418;-82
2022/09/23 03:13:34;;;;;;;46.38;18.63;;;;;;;;;;6227932;23;20013;-82
2022/09/23 03:16:39;;;;;;;52.90;18.67;;;;;;;;;;6228338;23;20016;-83
2022/09/23 03:19:47;;;;;;;48.22;17.67;;;;;;;;;;6227229;23;20016;-82
2022/09/23 03:22:41;;;;;;;40.75;16.42;;;;;;;;;;6227809;23;20012;-85
2022/09/23 03:25:28;;;;;;;23.88;11.20;;;;;;;;;;6241264;23;20421;-86
2022/09/23 03:28:16;;;;;;;22.08;11.77;;;;;;;;;;6257711;23;20317;-84
2022/09/23 03:31:02;;;;;;;18.90;9.77;;;;;;;;;;6257897;23;20016;-84
2022/09/23 03:33:56;;;;;;;21.35;9.88;;;;;;;;;;6257212;23;20016;-82
2022/09/23 03:37:09;;;;;;;17.70;10.60;;;;;;;;;;6258099;23;20008;-82
2022/09/23 03:40:13;;;;;;;23.08;10.70;;;;;;;;;;6257592;23;20012;-84
2022/09/23 03:43:01;;;;;;;19.60;10.88;;;;;;;;;;6257868;23;20015;-84
2022/09/23 03:45:47;;;;;;;24.25;10.45;;;;;;;;;;6258107;23;20012;-84
2022/09/23 03:48:32;;;;;;;21.27;10.65;;;;;;;;;;6257241;23;20016;-83
2022/09/23 03:51:22;;;;;;;21.27;10.30;;;;;;;;;;6257876;23;20008;-83
2022/09/23 03:54:08;;;;;;;17.08;8.50;;;;;;;;;;6257292;23;20012;-83
2022/09/23 03:56:57;;;;;;;15.52;9.43;;;;;;;;;;6257520;23;20336;-83
2022/09/23 03:59:42;;;;;;;17.88;9.63;;;;;;;;;;6257987;23;20012;-84
2022/09/23 04:02:27;;;;;;;13.27;9.00;;;;;;;;;;6256640;23;20329;-83
2022/09/23 04:05:13;;;;;;;14.05;8.98;;;;;;;;;;6256808;23;20012;-82
2022/09/23 04:07:59;;;;;;;15.93;9.35;;;;;;;;;;6256725;23;20016;-85
2022/09/23 04:10:44;;;;;;;13.50;8.45;;;;;;;;;;6256862;23;20013;-85
2022/09/23 04:13:30;;;;;;;9.90;6.93;;;;;;;;;;6256668;23;20020;-83
2022/09/23 04:16:15;;;;;;;12.20;6.93;;;;;;;;;;6256312;23;20008;-83
2022/09/23 04:19:01;;;;;;;11.23;6.47;;;;;;;;;;6256767;23;20012;-83
2022/09/23 04:21:46;;;;;;;14.30;6.95;;;;;;;;;;6257076;23;20020;-86
2022/09/23 04:24:32;;;;;;;19.08;8.55;;;;;;;;;;6256652;23;20420;-85
2022/09/23 04:27:18;;;;;;;15.57;8.20;;;;;;;;;;6257198;23;20008;-84
2022/09/23 04:30:04;;;;;;;23.60;13.25;;;;;;;;;;6256235;23;20016;-82
2022/09/23 04:32:51;;;;;;;24.15;12.93;;;;;;;;;;6257457;23;20429;-83
2022/09/23 04:35:37;;;;;;;20.25;12.90;;;;;;;;;;6261309;23;20016;-82
2022/09/23 04:38:23;;;;;;;22.85;12.88;;;;;;;;;;6264073;23;20016;-82
2022/09/23 04:41:09;;;;;;;22.17;11.45;;;;;;;;;;6265500;23;20016;-82
2022/09/23 04:43:56;;;;;;;16.30;9.88;;;;;;;;;;6264129;23;20012;-83
2022/09/23 04:46:46;;;;;;;19.77;11.00;;;;;;;;;;6263548;23;20008;-82
2022/09/23 04:49:32;;;;;;;18.48;9.38;;;;;;;;;;6264098;23;20016;-82
2022/09/23 04:52:18;;;;;;;15.80;8.05;;;;;;;;;;6262302;23;20329;-83
2022/09/23 04:55:04;;;;;;;14.10;8.20;;;;;;;;;;6257041;23;20012;-82
2022/09/23 04:57:49;;;;;;;18.88;10.00;;;;;;;;;;6256765;23;20012;-82
2022/09/23 05:00:35;;;;;;;28.88;13.60;;;;;;;;;;6256264;23;20016;-83
2022/09/23 05:03:20;;;;;;;59.40;30.25;;;;;;;;;;6256504;23;20441;-83
2022/09/23 05:06:06;;;;;;;107.22;44.97;;;;;;;;;;6256351;23;20016;-82
2022/09/23 05:08:54;;;;;;;99.47;41.80;;;;;;;;;;6256583;23;20016;-84
2022/09/23 05:11:39;;;;;;;86.63;34.17;;;;;;;;;;6255944;23;20016;-85
2022/09/23 05:14:24;;;;;;;78.13;32.22;;;;;;;;;;6256198;23;20012;-83
2022/09/23 05:17:10;;;;;;;41.45;22.00;;;;;;;;;;6257040;23;20015;-83
2022/09/23 05:19:57;;;;;;;42.90;21.70;;;;;;;;;;6255885;23;20428;-82
2022/09/23 05:22:43;;;;;;;39.88;19.80;;;;;;;;;;6258345;23;20020;-83
2022/09/23 05:25:29;;;;;;;30.17;19.13;;;;;;;;;;6254172;23;20011;-85
2022/09/23 05:28:18;;;;;;;47.90;24.13;;;;;;;;;;6255644;23;20016;-82
2022/09/23 05:31:16;;;;;;;30.98;17.73;;;;;;;;;;6255586;23;20012;-83
2022/09/23 05:34:04;;;;;;;19.95;12.52;;;;;;;;;;6256778;23;20012;-84
2022/09/23 05:36:49;;;;;;;25.02;13.13;;;;;;;;;;6256547;23;20008;-80
2022/09/23 05:39:35;;;;;;;22.15;12.55;;;;;;;;;;6256354;23;20012;-83
2022/09/23 05:42:20;;;;;;;24.45;13.52;;;;;;;;;;6258368;23;20341;-83
2022/09/23 05:45:07;;;;;;;21.05;12.77;;;;;;;;;;6259517;23;20012;-85
2022/09/23 05:47:52;;;;;;;21.23;13.43;;;;;;;;;;6258058;23;20016;-80
2022/09/23 05:50:38;;;;;;;21.92;12.57;;;;;;;;;;6257972;23;20016;-81
2022/09/23 05:53:24;;;;;;;22.55;11.02;;;;;;;;;;6258052;23;20325;-81
2022/09/23 05:56:11;;;;;;;22.23;11.10;;;;;;;;;;6258437;23;20012;-84
2022/09/23 05:58:59;;;;;;;15.48;10.02;;;;;;;;;;6258568;23;20433;-80
2022/09/23 06:01:45;;;;;;;12.90;8.60;;;;;;;;;;6257558;23;20016;-82
2022/09/23 06:04:30;;;;;;;12.40;8.48;;;;;;;;;;6257463;23;20019;-81
2022/09/23 06:07:16;;;;;;;14.98;9.10;;;;;;;;;;6258138;23;20011;-80
2022/09/23 06:10:01;;;;;;;16.73;8.30;;;;;;;;;;6258152;23;20016;-82
2022/09/23 06:12:52;;;;;;;13.73;7.50;;;;;;;;;;6257750;23;20012;-82
2022/09/23 06:15:38;;;;;;;10.98;6.53;;;;;;;;;;6257771;23;20016;-81
2022/09/23 06:18:23;;;;;;;10.32;7.28;;;;;;;;;;6258280;23;20016;-80
2022/09/23 06:21:12;;;;;;;10.65;6.70;;;;;;;;;;6258159;23;20016;-83
2022/09/23 06:23:59;;;;;;;9.68;6.40;;;;;;;;;;6257781;23;20020;-79
2022/09/23 06:26:46;;;;;;;8.55;6.28;;;;;;;;;;6247857;23;20393;-80
2022/09/23 06:29:31;;;;;;;10.00;6.72;;;;;;;;;;6257622;23;20012;-84
2022/09/23 06:32:18;;;;;;;9.70;5.97;;;;;;;;;;6257951;23;20016;-82
2022/09/23 06:35:04;;;;;;;8.20;6.72;;;;;;;;;;6258192;23;20016;-80
2022/09/23 06:37:50;;;;;;;8.13;6.55;;;;;;;;;;6258725;23;20338;-81
2022/09/23 06:40:35;;;;;;;10.40;6.65;;;;;;;;;;6257992;23;20016;-80
2022/09/23 06:43:23;;;;;;;9.55;7.53;;;;;;;;;;6257183;23;20020;-82
2022/09/23 06:46:14;;;;;;;8.95;5.45;;;;;;;;;;6257892;23;20012;-82
2022/09/23 06:49:01;;;;;;;4.60;2.85;;;;;;;;;;6257306;23;20012;-80
2022/09/23 06:51:47;;;;;;;7.05;4.95;;;;;;;;;;6257738;23;20016;-85
2022/09/23 06:54:33;;;;;;;10.57;6.85;;;;;;;;;;6257879;23;20016;-79
2022/09/23 06:57:19;;;;;;;13.27;6.18;;;;;;;;;;6257687;23;20008;-81
2022/09/23 07:00:04;;;;;;;15.52;9.43;;;;;;;;;;6257126;23;20012;-80
2022/09/23 07:02:49;;;;;;;10.10;6.90;;;;;;;;;;6255635;23;20016;-80
2022/09/23 07:05:37;;;;;;;12.10;6.60;;;;;;;;;;6256914;23;20433;-80
2022/09/23 07:08:25;;;;;;;7.93;5.07;;;;;;;;;;6257354;23;20012;-80
2022/09/23 07:11:11;;;;;;;19.80;7.05;;;;;;;;;;6257008;23;20020;-83
2022/09/23 07:13:57;;;;;;;9.88;6.97;;;;;;;;;;6257179;23;20012;-79
2022/09/23 07:16:42;;;;;;;10.60;7.30;;;;;;;;;;6257133;23;20016;-80
2022/09/23 07:19:28;;;;;;;10.52;6.40;;;;;;;;;;6257470;23;20012;-81
2022/09/23 07:22:14;;;;;;;11.55;6.05;;;;;;;;;;6257211;23;20329;-83
2022/09/23 07:24:59;;;;;;;12.90;6.70;;;;;;;;;;6257036;23;20009;-82
2022/09/23 07:27:45;;;;;;;12.00;6.60;;;;;;;;;;6258074;23;20012;-81
2022/09/23 07:30:34;;;;;;;11.55;6.18;;;;;;;;;;6257050;23;20016;-79
2022/09/23 07:33:20;;;;;;;10.55;6.90;;;;;;;;;;6256960;23;20016;-80
2022/09/23 07:36:11;;;;;;;9.38;6.25;;;;;;;;;;6257427;23;20012;-80
2022/09/23 07:39:02;;;;;;;8.43;6.25;;;;;;;;;;6257314;23;20008;-78
2022/09/23 07:41:48;;;;;;;4.18;3.03;;;;;;;;;;6257426;23;20027;-79
2022/09/23 07:44:33;;;;;;;10.02;6.93;;;;;;;;;;6256872;23;20016;-80
2022/09/23 07:47:19;;;;;;;9.57;5.95;;;;;;;;;;6257377;23;20016;-82
2022/09/23 07:50:06;;;;;;;8.52;6.07;;;;;;;;;;6257516;23;20016;-82
2022/09/23 07:52:52;;;;;;;7.90;6.13;;;;;;;;;;6256797;23;20016;-83
2022/09/23 07:55:37;;;;;;;5.82;4.13;;;;;;;;;;6258167;23;20012;-79
2022/09/23 07:58:23;;;;;;;11.25;6.20;;;;;;;;;;6256995;23;20433;-81
2022/09/23 08:01:10;;;;;;;7.63;5.80;;;;;;;;;;6257164;23;20008;-82
2022/09/23 08:03:57;;;;;;;6.72;5.40;;;;;;;;;;6257416;23;20016;-81
2022/09/23 08:06:45;;;;;;;8.57;5.85;;;;;;;;;;6257193;23;20420;-80
2022/09/23 08:09:40;;;;;;;11.85;5.97;;;;;;;;;;6256963;23;20011;-80
2022/09/23 08:12:25;;;;;;;9.77;5.35;;;;;;;;;;6256675;23;20016;-80
2022/09/23 08:15:10;;;;;;;9.02;5.85;;;;;;;;;;6256946;23;20008;-82
2022/09/23 08:18:00;;;;;;;31.42;21.58;;;;;;;;;;6256872;23;20016;-79
2022/09/23 08:20:44;;;;;;;8.70;4.60;;;;;;;;;;6256472;23;20016;-80
2022/09/23 08:23:32;;;;;;;26.92;14.57;;;;;;;;;;6256693;23;20016;-80
2022/09/23 08:26:18;;;;;;;11.02;6.45;;;;;;;;;;6256748;23;20292;-79
2022/09/23 08:29:04;;;;;;;7.93;6.10;;;;;;;;;;6257261;23;20020;-79
2022/09/23 08:31:49;;;;;;;8.38;5.32;;;;;;;;;;6257073;23;20020;-80
2022/09/23 08:34:34;;;;;;;8.38;5.63;;;;;;;;;;6256399;23;20008;-80
2022/09/23 08:37:23;;;;;;;10.90;6.22;;;;;;;;;;6255958;23;20247;-81
2022/09/23 08:40:09;;;;;;;9.38;5.40;;;;;;;;;;6255636;23;20433;-80
2022/09/23 08:42:54;;;;;;;6.18;4.50;;;;;;;;;;6276579;22;20020;-80
2022/09/23 08:45:42;;;;;;;7.28;5.13;;;;;;;;;;6257279;23;20016;-81
2022/09/23 08:48:42;;;;;;;7.18;5.03;;;;;;;;;;6256085;23;20008;-82
2022/09/23 08:51:38;;;;;;;5.43;4.40;;;;;;;;;;6256740;23;20016;-81
2022/09/23 08:54:28;;;;;;;7.05;5.35;;;;;;;;;;6256564;23;20016;-81
2022/09/23 08:57:44;;;;;;;7.57;5.05;;;;;;;;;;6257196;23;20016;-82
2022/09/23 09:00:36;;;;;;;8.07;4.95;;;;;;;;;;6277127;22;20333;-81
2022/09/23 09:03:24;;;;;;;7.90;4.60;;;;;;;;;;6256315;23;20020;-81
2022/09/23 09:06:16;;;;;;;9.93;5.13;;;;;;;;;;6257125;23;20016;-81
2022/09/23 09:09:04;;;;;;;7.35;3.70;;;;;;;;;;6256391;23;20012;-81
2022/09/23 09:11:54;;;;;;;2.05;1.63;;;;;;;;;;6257184;23;20011;-81
2022/09/23 09:15:00;;;;;;;4.47;3.53;;;;;;;;;;6257886;23;20016;-81
2022/09/23 09:18:01;;;;;;;4.88;3.88;;;;;;;;;;6258655;23;20008;-80
2022/09/23 09:21:13;;;;;;;7.15;3.90;;;;;;;;;;6258766;23;20012;-81
2022/09/23 09:23:58;;;;;;;6.15;3.45;;;;;;;;;;6245083;23;20016;-81
2022/09/23 09:26:44;;;;;;;8.73;4.95;;;;;;;;;;6259015;23;20313;-81
2022/09/23 09:29:38;;;;;;;8.00;5.05;;;;;;;;;;6257308;23;20421;-81
2022/09/23 09:32:37;;;;;;;6.80;3.22;;;;;;;;;;6258621;23;20020;-80
2022/09/23 09:35:37;;;;;;;4.57;2.85;;;;;;;;;;6279963;22;20012;-83
2022/09/23 09:38:22;;;;;;;3.95;3.03;;;;;;;;;;6258372;23;20011;-83
2022/09/23 09:41:20;;;;;;;3.38;2.75;;;;;;;;;;6259298;23;20016;-81
2022/09/23 09:44:16;;;;;;;2.80;2.22;;;;;;;;;;6259370;23;20016;-80
2022/09/23 09:47:32;;;;;;;2.58;2.20;;;;;;;;;;6260119;23;20336;-82
2022/09/23 09:50:40;;;;;;;4.18;2.17;;;;;;;;;;6246556;23;20012;-82
2022/09/23 09:53:29;;;;;;;3.45;2.45;;;;;;;;;;6258669;23;20016;-82
2022/09/23 09:56:16;;;;;;;3.83;2.50;;;;;;;;;;6259048;23;20413;-81
2022/09/23 09:59:17;;;;;;;3.05;2.35;;;;;;;;;;6257813;23;20016;-84
2022/09/23 10:02:27;;;;;;;3.65;2.78;;;;;;;;;;6258818;23;20016;-83
2022/09/23 10:05:26;;;;;;;2.90;2.63;;;;;;;;;;6258294;23;20016;-83
2022/09/23 10:08:28;;;;;;;2.65;2.33;;;;;;;;;;6258675;23;20016;-83
2022/09/23 10:11:16;;;;;;;5.03;3.40;;;;;;;;;;6258436;23;20011;-84
2022/09/23 10:14:04;;;;;;;4.95;3.10;;;;;;;;;;6258126;23;20316;-83
2022/09/23 10:17:04;;;;;;;3.67;3.03;;;;;;;;;;6258055;23;20016;-82
2022/09/23 10:19:59;;;;;;;3.28;2.70;;;;;;;;;;6257621;23;20016;-82
2022/09/23 10:22:45;;;;;;;6.07;2.55;;;;;;;;;;6258384;23;20433;-82
2022/09/23 10:25:33;;;;;;;2.45;2.25;;;;;;;;;;6251778;23;20309;-83
2022/09/23 10:28:37;;;;;;;4.03;2.58;;;;;;;;;;6258288;23;20453;-82
2022/09/23 10:31:25;;;;;;;3.25;2.50;;;;;;;;;;6258493;23;20012;-81
2022/09/23 10:34:26;;;;;;;3.17;2.20;;;;;;;;;;6257304;23;20020;-82
2022/09/23 10:37:20;;;;;;;4.30;3.00;;;;;;;;;;6258576;23;20020;-83
2022/09/23 10:47:32;;;;;;;4.78;2.28;;;;;;;;;;6257797;23;20360;-81
2022/09/23 10:50:40;;;;;;;3.47;2.33;;;;;;;;;;6256700;23;20008;-83
2022/09/23 10:54:08;;;;;;;3.70;2.22;;;;;;;;;;6258013;23;20012;-84
2022/09/23 10:56:57;;;;;;;3.33;2.40;;;;;;;;;;6257200;23;20012;-82
2022/09/23 10:59:59;;;;;;;3.38;2.25;;;;;;;;;;6257729;23;20012;-85
2022/09/23 11:03:03;;;;;;;2.83;2.03;;;;;;;;;;6257222;23;20016;-83
2022/09/23 11:06:10;;;;;;;7.32;2.10;;;;;;;;;;6258253;23;20016;-82
2022/09/23 11:09:14;;;;;;;3.33;2.08;;;;;;;;;;6257565;23;20012;-82
2022/09/23 11:12:31;;;;;;;2.45;2.00;;;;;;;;;;6257598;23;20329;-81
2022/09/23 11:15:39;;;;;;;4.55;2.00;;;;;;;;;;6257504;23;20016;-84
2022/09/23 11:18:48;;;;;;;3.38;1.70;;;;;;;;;;6277985;22;20012;-84
2022/09/23 11:21:33;;;;;;;2.85;1.70;;;;;;;;;;6258759;23;20012;-81
2022/09/23 11:24:59;;;;;;;1.98;1.30;;;;;;;;;;6258330;23;20016;-82
2022/09/23 11:28:11;;;;;;;1.45;1.23;;;;;;;;;;6165136;23;20013;-81
2022/09/23 11:31:15;;;;;;;1.40;1.30;;;;;;;;;;6164046;23;20014;-82
2022/09/23 11:34:14;;;;;;;2.97;1.67;;;;;;;;;;6257405;23;20016;-82
2022/09/23 11:37:38;;;;;;;1.80;1.50;;;;;;;;;;6256998;23;20016;-82
2022/09/23 11:40:31;;;;;;;2.67;1.50;;;;;;;;;;6240256;23;20012;-82
2022/09/23 11:43:23;;;;;;;1.48;1.25;;;;;;;;;;6256809;23;20016;-82
2022/09/23 11:46:34;;;;;;;1.48;1.20;;;;;;;;;;6277315;22;20012;-82
2022/09/23 11:49:46;;;;;;;1.40;1.23;;;;;;;;;;6257061;23;20012;-84
2022/09/23 11:52:46;;;;;;;1.85;1.65;;;;;;;;;;6257772;23;20020;-83
2022/09/23 11:55:39;;;;;;;1.27;1.17;;;;;;;;;;6257183;23;20012;-82
2022/09/23 11:58:45;;;;;;;3.75;1.73;;;;;;;;;;6255297;23;20017;-84
2022/09/23 12:01:36;;;;;;;3.28;2.17;;;;;;;;;;6278033;22;20016;-83
2022/09/23 12:04:29;;;;;;;2.17;1.75;;;;;;;;;;6257974;23;20392;-82
2022/09/23 12:07:24;;;;;;;2.00;1.63;;;;;;;;;;6257139;23;20012;-82
2022/09/23 12:10:11;;;;;;;3.80;1.80;;;;;;;;;;6257447;23;20012;-81
2022/09/23 12:13:16;;;;;;;2.55;1.80;;;;;;;;;;6277427;22;20012;-83
2022/09/23 12:16:23;;;;;;;2.45;1.50;;;;;;;;;;6257340;23;20437;-82
2022/09/23 12:19:33;;;;;;;2.58;2.13;;;;;;;;;;6257007;23;20008;-80
2022/09/23 12:22:27;;;;;;;2.20;1.42;;;;;;;;;;6256909;23;20325;-83
2022/09/23 12:25:28;;;;;;;2.83;1.50;;;;;;;;;;6253549;23;20016;-81
2022/09/23 12:28:25;;;;;;;2.35;1.50;;;;;;;;;;6257051;23;20016;-84
2022/09/23 12:31:20;;;;;;;1.23;1.10;;;;;;;;;;6257546;23;20016;-82
2022/09/23 12:34:29;;;;;;;1.98;1.50;;;;;;;;;;6257881;23;20016;-81
2022/09/23 12:37:37;;;;;;;4.03;1.80;;;;;;;;;;6257300;23;20328;-81
2022/09/23 12:40:30;;;;;;;3.70;2.10;;;;;;;;;;6257279;23;20409;-82
2022/09/23 12:43:28;;;;;;;2.45;1.60;;;;;;;;;;6257885;23;20020;-82
2022/09/23 12:46:26;;;;;;;2.33;1.40;;;;;;;;;;6256305;23;20413;-83
2022/09/23 12:49:28;;;;;;;1.73;1.50;;;;;;;;;;6256797;23;20012;-82
2022/09/23 12:52:29;;;;;;;1.75;1.55;;;;;;;;;;6259720;23;20012;-80
2022/09/23 12:55:23;;;;;;;3.47;1.63;;;;;;;;;;6260084;23;20417;-81
2022/09/23 12:58:37;;;;;;;1.83;1.48;;;;;;;;;;6260999;23;20016;-82
2022/09/23 13:01:24;;;;;;;3.22;1.80;;;;;;;;;;6259713;23;20016;-83
2022/09/23 13:07:32;;;;;;;2.92;1.40;;;;;;;;;;6259821;23;20452;-84
2022/09/23 13:10:31;;;;;;;1.27;1.17;;;;;;;;;;6260700;23;20433;-83
2022/09/23 13:13:35;;;;;;;5.40;1.60;;;;;;;;;;6258202;23;20016;-84
2022/09/23 13:16:28;;;;;;;1.75;1.23;;;;;;;;;;6261622;23;20008;-84
2022/09/23 13:19:28;;;;;;;2.33;1.75;;;;;;;;;;6259163;23;20016;-82
2022/09/23 13:22:57;;;;;;;2.65;1.17;;;;;;;;;;6259123;23;20020;-82
2022/09/23 13:25:43;;;;;;;4.07;2.00;;;;;;;;;;6253019;23;20421;-81
2022/09/23 13:28:52;;;;;;;2.50;1.60;;;;;;;;;;6257889;23;20426;-84
2022/09/23 13:31:42;;;;;;;3.00;1.50;;;;;;;;;;6257707;23;20016;-84
2022/09/23 13:34:37;;;;;;;2.42;1.70;;;;;;;;;;6258701;23;20008;-83
2022/09/23 13:37:31;;;;;;;2.90;1.88;;;;;;;;;;6279739;22;20016;-84
2022/09/23 13:40:26;;;;;;;1.42;0.80;;;;;;;;;;6259904;23;20008;-82
2022/09/23 13:43:22;;;;;;;2.65;1.70;;;;;;;;;;6259150;23;20012;-84
2022/09/23 13:46:17;;;;;;;2.55;1.80;;;;;;;;;;6259468;23;20309;-85
2022/09/23 13:49:02;;;;;;;3.05;1.80;;;;;;;;;;6258631;23;20340;-84
2022/09/23 13:51:54;;;;;;;2.55;2.20;;;;;;;;;;6260254;23;20012;-84
2022/09/23 13:54:48;;;;;;;3.20;1.65;;;;;;;;;;6258206;23;20016;-83
2022/09/23 13:57:34;;;;;;;5.85;2.92;;;;;;;;;;6257182;23;20429;-82
2022/09/23 14:00:21;;;;;;;3.75;2.30;;;;;;;;;;6259198;23;20016;-82
2022/09/23 14:03:37;;;;;;;2.95;2.00;;;;;;;;;;6260154;23;20017;-83
2022/09/23 14:06:26;;;;;;;3.67;2.58;;;;;;;;;;6247352;23;20333;-84
2022/09/23 14:09:11;;;;;;;64.25;46.83;;;;;;;;;;6259834;23;20012;-82
2022/09/23 14:11:59;;;;;;;18.33;11.98;;;;;;;;;;6279886;22;20012;-82
2022/09/23 14:14:45;;;;;;;3.10;1.90;;;;;;;;;;6259490;23;20008;-82
2022/09/23 14:17:30;;;;;;;5.95;3.63;;;;;;;;;;6259666;23;20012;-83
2022/09/23 14:20:20;;;;;;;113.88;80.10;;;;;;;;;;6259131;23;20016;-84
2022/09/23 14:23:15;;;;;;;4.18;2.40;;;;;;;;;;6258935;23;20432;-84
2022/09/23 14:26:01;;;;;;;3.78;2.00;;;;;;;;;;6255040;23;20305;-81
2022/09/23 14:28:47;;;;;;;6.88;4.10;;;;;;;;;;6260529;23;20016;-83
2022/09/23 14:31:35;;;;;;;4.13;2.50;;;;;;;;;;6258673;23;20329;-84
2022/09/23 14:34:44;;;;;;;2.72;2.05;;;;;;;;;;6258903;23;20019;-83
2022/09/23 14:41:29;;;;;;;5.28;1.58;;;;;;;;;;6256603;23;20016;-81
2022/09/23 14:44:21;;;;;;;3.83;1.48;;;;;;;;;;6257840;23;20004;-84
2022/09/23 14:47:18;;;;;;;3.28;2.28;;;;;;;;;;6257921;23;20016;-83
2022/09/23 14:50:36;;;;;;;4.03;2.03;;;;;;;;;;6256506;23;20011;-83
2022/09/23 14:53:32;;;;;;;3.83;1.50;;;;;;;;;;6258022;23;20012;-85
2022/09/23 14:56:19;;;;;;;5.65;2.30;;;;;;;;;;6259364;23;20012;-83
2022/09/23 14:59:35;;;;;;;4.95;2.20;;;;;;;;;;6257953;23;20016;-84
2022/09/23 15:02:35;;;;;;;3.35;2.30;;;;;;;;;;6258464;23;20019;-84
2022/09/23 15:05:40;;;;;;;;;;;;;;;;;;6257252;23;20012;-81
2022/09/23 15:08:26;;;;;;;4.50;1.88;;;;;;;;;;6278418;22;19903;-84
2022/09/23 15:11:12;;;;;;;3.80;1.67;;;;;;;;;;6277658;22;20015;-83
2022/09/23 15:13:59;;;;;;;3.40;2.20;;;;;;;;;;6256293;23;20329;-82
2022/09/23 15:16:46;;;;;;;3.63;2.22;;;;;;;;;;6258207;23;20119;-82
2022/09/23 15:19:34;;;;;;;5.97;3.03;;;;;;;;;;6256714;22;20012;-82
2022/09/23 15:22:19;;;;;;;7.10;3.35;;;;;;;;;;6256761;23;20016;-82
2022/09/23 15:25:16;;;;;;;9.45;3.17;;;;;;;;;;6256316;23;20012;-83
2022/09/23 15:28:16;;;;;;;5.88;3.10;;;;;;;;;;6257527;23;20012;-82
2022/09/23 15:31:07;;;;;;;7.93;3.45;;;;;;;;;;6257671;23;20266;-82
2022/09/23 15:33:52;;;;;;;5.43;3.30;;;;;;;;;;6256461;23;20020;-86
2022/09/23 15:41:06;;;;;;;9.20;5.20;;;;;;;;;;6220252;23;20016;-85
2022/09/23 15:44:47;;;;;;;5.35;3.13;;;;;;;;;;6257474;23;20012;-85
2022/09/23 15:48:13;;;;;;;11.60;3.80;;;;;;;;;;6256348;23;20023;-83
2022/09/23 15:51:02;;;;;;;;;;;;;;;;;;6256088;23;20020;-83
2022/09/23 15:53:53;;;;;;;13.73;7.50;;;;;;;;;;6257584;23;19907;-85
2022/09/23 15:56:41;;;;;;;12.30;8.38;;;;;;;;;;6256511;23;20012;-83
2022/09/23 15:59:29;;;;;;;20.42;11.32;;;;;;;;;;6256926;23;20322;-86
2022/09/23 16:02:23;;;;;;;12.10;5.90;;;;;;;;;;6256185;23;20008;-83
2022/09/23 16:05:47;;;;;;;10.45;5.70;;;;;;;;;;6255762;23;20008;-86
2022/09/23 16:09:19;;;;;;;11.93;5.45;;;;;;;;;;6200396;23;20013;-87
2022/09/23 16:12:15;;;;;;;13.95;7.50;;;;;;;;;;6257536;23;20325;-82
2022/09/23 16:15:09;;;;;;;19.88;11.13;;;;;;;;;;6282707;22;20012;-86
2022/09/23 16:17:54;;;;;;;20.58;12.05;;;;;;;;;;6261733;23;20012;-82
2022/09/23 16:20:45;;;;;;;21.75;11.52;;;;;;;;;;6262968;23;20015;-82
2022/09/23 16:23:38;;;;;;;28.88;15.20;;;;;;;;;;6262947;23;20343;-84
2022/09/23 16:26:30;;;;;;;48.92;25.45;;;;;;;;;;6252709;23;20012;-82
2022/09/23 16:29:15;;;;;;;50.97;28.77;;;;;;;;;;6261711;23;20015;-82
2022/09/23 16:32:01;;;;;;;62.78;33.88;;;;;;;;;;6256264;23;20016;-83
2022/09/23 16:34:47;;;;;;;69.20;36.53;;;;;;;;;;6255652;23;20012;-82
2022/09/23 16:37:32;;;;;;;64.22;35.35;;;;;;;;;;6255272;23;20015;-82
2022/09/23 16:40:19;;;;;;;47.40;29.92;;;;;;;;;;6256155;23;20012;-83
2022/09/23 16:43:06;;;;;;;46.13;28.90;;;;;;;;;;6256456;23;20016;-83
2022/09/23 16:45:53;;;;;;;47.22;28.75;;;;;;;;;;6256186;23;20016;-82
2022/09/23 16:48:39;;;;;;;37.38;23.25;;;;;;;;;;6255622;23;20389;-83
2022/09/23 16:51:30;;;;;;;35.50;22.15;;;;;;;;;;6256254;23;20016;-83
2022/09/23 16:54:16;;;;;;;36.35;20.60;;;;;;;;;;6256552;23;20302;-84
2022/09/23 16:57:02;;;;;;;35.30;22.38;;;;;;;;;;6256725;23;20012;-84
2022/09/23 17:05:55;;;;;;;33.72;20.52;;;;;;;;;;6255896;23;20012;-81
2022/09/23 17:08:41;;;;;;;35.00;21.52;;;;;;;;;;6256677;23;20012;-83
2022/09/23 17:11:28;;;;;;;28.45;16.27;;;;;;;;;;6255439;23;20013;-83
2022/09/23 17:14:14;;;;;;;29.75;15.80;;;;;;;;;;6256210;23;20421;-82
2022/09/23 17:17:00;;;;;;;30.08;15.38;;;;;;;;;;6257263;23;20385;-82
2022/09/23 17:19:45;;;;;;;33.25;17.88;;;;;;;;;;6255733;23;20421;-83
2022/09/23 17:22:32;;;;;;;32.47;17.10;;;;;;;;;;6256570;23;20008;-82
2022/09/23 17:25:18;;;;;;;39.08;17.02;;;;;;;;;;6253788;23;20013;-84
2022/09/23 17:28:03;;;;;;;34.55;17.83;;;;;;;;;;6255103;23;20020;-83